sensor_id;sensor_type;location;lat;lon;timestamp;P1;durP1;ratioP1;P2;durP2;ratioP2
77022;SDS011;65952;51.440;-2.054;2022-12-17T00:02:13;5.72;;;2.80;;
77022;SDS011;65952;51.440;-2.054;2022-12-17T00:04:57;6.40;;;2.58;;
77022;SDS011;65952;51.440;-2.054;2022-12-17T00:07:41;5.45;;;2.60;;
77022;SDS011;65952;51.440;-2.054;2022-12-17T00:10:25;5.28;;;2.75;;
77022;SDS011;65952;51.440;-2.054;2022-12-17T00:13:20;5.13;;;2.83;;
77022;SDS011;65952;51.440;-2.054;2022-12-17T00:16:04;5.82;;;2.47;;
77022;SDS011;65952;51.440;-2.054;2022-12-17T00:18:48;7.10;;;2.50;;
77022;SDS011;65952;51.440;-2.054;2022-12-17T00:21:33;4.95;;;2.53;;
77022;SDS011;65952;51.440;-2.054;2022-12-17T00:24:17;5.32;;;2.53;;
77022;SDS011;65952;51.440;-2.054;2022-12-17T00:27:01;7.47;;;2.60;;
77022;SDS011;65952;51.440;-2.054;2022-12-17T00:29:45;4.70;;;2.40;;
77022;SDS011;65952;51.440;-2.054;2022-12-17T00:32:29;4.38;;;2.28;;
77022;SDS011;65952;51.440;-2.054;2022-12-17T00:35:13;4.22;;;2.30;;
77022;SDS011;65952;51.440;-2.054;2022-12-17T00:37:56;4.65;;;2.60;;
77022;SDS011;65952;51.440;-2.054;2022-12-17T00:40:40;4.35;;;2.45;;
77022;SDS011;65952;51.440;-2.054;2022-12-17T00:43:24;8.48;;;2.72;;
77022;SDS011;65952;51.440;-2.054;2022-12-17T00:46:08;4.57;;;2.50;;
77022;SDS011;65952;51.440;-2.054;2022-12-17T00:48:52;4.82;;;2.42;;
77022;SDS011;65952;51.440;-2.054;2022-12-17T00:51:36;5.57;;;2.42;;
77022;SDS011;65952;51.440;-2.054;2022-12-17T00:54:20;4.57;;;2.30;;
77022;SDS011;65952;51.440;-2.054;2022-12-17T00:57:04;4.82;;;2.45;;
77022;SDS011;65952;51.440;-2.054;2022-12-17T00:59:48;5.13;;;2.40;;
77022;SDS011;65952;51.440;-2.054;2022-12-17T01:02:32;5.50;;;2.30;;
77022;SDS011;65952;51.440;-2.054;2022-12-17T01:05:16;4.70;;;2.47;;
77022;SDS011;65952;51.440;-2.054;2022-12-17T01:08:10;4.10;;;2.20;;
77022;SDS011;65952;51.440;-2.054;2022-12-17T01:11:00;4.97;;;2.28;;
77022;SDS011;65952;51.440;-2.054;2022-12-17T01:13:46;4.35;;;2.20;;
77022;SDS011;65952;51.440;-2.054;2022-12-17T01:16:31;4.65;;;2.00;;
77022;SDS011;65952;51.440;-2.054;2022-12-17T01:19:15;5.45;;;2.22;;
77022;SDS011;65952;51.440;-2.054;2022-12-17T01:21:59;4.75;;;2.60;;
77022;SDS011;65952;51.440;-2.054;2022-12-17T01:24:43;4.95;;;2.30;;
77022;SDS011;65952;51.440;-2.054;2022-12-17T01:27:27;4.82;;;2.30;;
77022;SDS011;65952;51.440;-2.054;2022-12-17T01:30:11;3.63;;;2.00;;
77022;SDS011;65952;51.440;-2.054;2022-12-17T01:33:00;5.00;;;2.40;;
77022;SDS011;65952;51.440;-2.054;2022-12-17T01:35:48;6.70;;;2.22;;
77022;SDS011;65952;51.440;-2.054;2022-12-17T01:38:32;4.43;;;2.20;;
77022;SDS011;65952;51.440;-2.054;2022-12-17T01:41:16;4.85;;;2.28;;
77022;SDS011;65952;51.440;-2.054;2022-12-17T01:47:23;3.72;;;2.00;;
77022;SDS011;65952;51.440;-2.054;2022-12-17T01:50:09;4.25;;;2.00;;
77022;SDS011;65952;51.440;-2.054;2022-12-17T01:52:54;4.43;;;2.22;;
77022;SDS011;65952;51.440;-2.054;2022-12-17T01:55:42;4.03;;;2.15;;
77022;SDS011;65952;51.440;-2.054;2022-12-17T01:58:26;5.07;;;1.92;;
77022;SDS011;65952;51.440;-2.054;2022-12-17T02:01:11;4.50;;;2.13;;
77022;SDS011;65952;51.440;-2.054;2022-12-17T02:03:55;4.10;;;2.15;;
77022;SDS011;65952;51.440;-2.054;2022-12-17T02:06:40;4.75;;;2.10;;
77022;SDS011;65952;51.440;-2.054;2022-12-17T02:12:50;4.72;;;2.13;;
77022;SDS011;65952;51.440;-2.054;2022-12-17T02:15:49;4.43;;;2.20;;
77022;SDS011;65952;51.440;-2.054;2022-12-17T02:18:44;4.22;;;2.03;;
77022;SDS011;65952;51.440;-2.054;2022-12-17T02:21:55;4.70;;;2.20;;
77022;SDS011;65952;51.440;-2.054;2022-12-17T02:24:51;3.97;;;1.95;;
77022;SDS011;65952;51.440;-2.054;2022-12-17T02:27:41;3.90;;;2.10;;
77022;SDS011;65952;51.440;-2.054;2022-12-17T02:30:26;4.63;;;2.00;;
77022;SDS011;65952;51.440;-2.054;2022-12-17T02:33:12;4.10;;;2.05;;
77022;SDS011;65952;51.440;-2.054;2022-12-17T02:35:58;3.83;;;2.00;;
77022;SDS011;65952;51.440;-2.054;2022-12-17T02:38:48;3.78;;;1.80;;
77022;SDS011;65952;51.440;-2.054;2022-12-17T02:41:43;4.57;;;1.95;;
77022;SDS011;65952;51.440;-2.054;2022-12-17T02:44:31;4.38;;;2.10;;
77022;SDS011;65952;51.440;-2.054;2022-12-17T02:47:18;3.90;;;2.03;;
77022;SDS011;65952;51.440;-2.054;2022-12-17T02:50:03;4.47;;;2.20;;
77022;SDS011;65952;51.440;-2.054;2022-12-17T02:52:47;3.85;;;2.00;;
77022;SDS011;65952;51.440;-2.054;2022-12-17T02:55:32;4.50;;;2.10;;
77022;SDS011;65952;51.440;-2.054;2022-12-17T02:58:18;3.97;;;2.10;;
77022;SDS011;65952;51.440;-2.054;2022-12-17T03:01:02;3.45;;;1.75;;
77022;SDS011;65952;51.440;-2.054;2022-12-17T03:03:46;3.58;;;1.90;;
77022;SDS011;65952;51.440;-2.054;2022-12-17T03:06:30;4.35;;;2.10;;
77022;SDS011;65952;51.440;-2.054;2022-12-17T03:09:14;3.47;;;1.80;;
77022;SDS011;65952;51.440;-2.054;2022-12-17T03:11:57;4.60;;;1.90;;
77022;SDS011;65952;51.440;-2.054;2022-12-17T03:14:41;4.13;;;2.00;;
77022;SDS011;65952;51.440;-2.054;2022-12-17T03:17:25;3.95;;;2.08;;
77022;SDS011;65952;51.440;-2.054;2022-12-17T03:20:10;3.92;;;1.80;;
77022;SDS011;65952;51.440;-2.054;2022-12-17T03:23:03;3.75;;;1.90;;
77022;SDS011;65952;51.440;-2.054;2022-12-17T03:25:49;4.25;;;2.08;;
77022;SDS011;65952;51.440;-2.054;2022-12-17T03:28:33;3.85;;;1.90;;
77022;SDS011;65952;51.440;-2.054;2022-12-17T03:31:18;3.80;;;2.00;;
77022;SDS011;65952;51.440;-2.054;2022-12-17T03:34:02;3.40;;;1.70;;
77022;SDS011;65952;51.440;-2.054;2022-12-17T03:36:46;3.72;;;1.90;;
77022;SDS011;65952;51.440;-2.054;2022-12-17T03:39:30;4.10;;;1.90;;
77022;SDS011;65952;51.440;-2.054;2022-12-17T03:42:14;3.33;;;1.80;;
77022;SDS011;65952;51.440;-2.054;2022-12-17T03:44:58;3.88;;;2.08;;
77022;SDS011;65952;51.440;-2.054;2022-12-17T03:47:42;4.70;;;2.05;;
77022;SDS011;65952;51.440;-2.054;2022-12-17T03:50:26;3.22;;;1.80;;
77022;SDS011;65952;51.440;-2.054;2022-12-17T03:53:10;3.75;;;1.98;;
77022;SDS011;65952;51.440;-2.054;2022-12-17T03:55:54;4.25;;;1.90;;
77022;SDS011;65952;51.440;-2.054;2022-12-17T03:58:38;3.58;;;1.88;;
77022;SDS011;65952;51.440;-2.054;2022-12-17T04:01:22;3.70;;;1.90;;
77022;SDS011;65952;51.440;-2.054;2022-12-17T04:04:06;3.80;;;2.10;;
77022;SDS011;65952;51.440;-2.054;2022-12-17T04:06:50;3.88;;;2.00;;
77022;SDS011;65952;51.440;-2.054;2022-12-17T04:09:34;3.20;;;1.67;;
77022;SDS011;65952;51.440;-2.054;2022-12-17T04:12:17;3.72;;;1.98;;
77022;SDS011;65952;51.440;-2.054;2022-12-17T04:15:02;5.53;;;2.05;;
77022;SDS011;65952;51.440;-2.054;2022-12-17T04:17:46;4.90;;;2.10;;
77022;SDS011;65952;51.440;-2.054;2022-12-17T04:20:30;4.03;;;2.10;;
77022;SDS011;65952;51.440;-2.054;2022-12-17T04:23:14;3.70;;;2.00;;
77022;SDS011;65952;51.440;-2.054;2022-12-17T04:25:58;3.60;;;1.80;;
77022;SDS011;65952;51.440;-2.054;2022-12-17T04:28:42;3.75;;;2.03;;
77022;SDS011;65952;51.440;-2.054;2022-12-17T04:31:26;5.45;;;1.90;;
77022;SDS011;65952;51.440;-2.054;2022-12-17T04:34:10;3.47;;;1.75;;
77022;SDS011;65952;51.440;-2.054;2022-12-17T04:36:54;3.45;;;1.80;;
77022;SDS011;65952;51.440;-2.054;2022-12-17T04:39:38;4.15;;;2.10;;
77022;SDS011;65952;51.440;-2.054;2022-12-17T04:42:22;4.47;;;2.00;;
77022;SDS011;65952;51.440;-2.054;2022-12-17T04:45:06;3.28;;;1.80;;
77022;SDS011;65952;51.440;-2.054;2022-12-17T04:47:50;3.70;;;1.80;;
77022;SDS011;65952;51.440;-2.054;2022-12-17T04:50:43;5.50;;;1.80;;
77022;SDS011;65952;51.440;-2.054;2022-12-17T04:53:27;4.10;;;1.83;;
77022;SDS011;65952;51.440;-2.054;2022-12-17T04:56:11;3.15;;;1.70;;
77022;SDS011;65952;51.440;-2.054;2022-12-17T04:58:55;3.50;;;1.90;;
77022;SDS011;65952;51.440;-2.054;2022-12-17T05:01:39;3.30;;;1.80;;
77022;SDS011;65952;51.440;-2.054;2022-12-17T05:04:23;3.55;;;1.75;;
77022;SDS011;65952;51.440;-2.054;2022-12-17T05:07:07;4.47;;;1.80;;
77022;SDS011;65952;51.440;-2.054;2022-12-17T05:09:51;4.13;;;2.10;;
77022;SDS011;65952;51.440;-2.054;2022-12-17T05:12:35;4.20;;;2.50;;
77022;SDS011;65952;51.440;-2.054;2022-12-17T05:15:19;4.03;;;1.90;;
77022;SDS011;65952;51.440;-2.054;2022-12-17T05:18:07;4.25;;;2.03;;
77022;SDS011;65952;51.440;-2.054;2022-12-17T05:20:51;4.43;;;1.70;;
77022;SDS011;65952;51.440;-2.054;2022-12-17T05:23:35;3.75;;;1.88;;
77022;SDS011;65952;51.440;-2.054;2022-12-17T05:26:20;3.83;;;1.90;;
77022;SDS011;65952;51.440;-2.054;2022-12-17T05:29:06;3.47;;;1.55;;
77022;SDS011;65952;51.440;-2.054;2022-12-17T05:31:50;4.38;;;2.15;;
77022;SDS011;65952;51.440;-2.054;2022-12-17T05:34:34;3.58;;;1.70;;
77022;SDS011;65952;51.440;-2.054;2022-12-17T05:37:19;3.58;;;1.80;;
77022;SDS011;65952;51.440;-2.054;2022-12-17T05:40:03;3.22;;;1.63;;
77022;SDS011;65952;51.440;-2.054;2022-12-17T05:42:57;4.53;;;1.90;;
77022;SDS011;65952;51.440;-2.054;2022-12-17T05:45:42;4.70;;;1.80;;
77022;SDS011;65952;51.440;-2.054;2022-12-17T05:48:27;4.50;;;2.20;;
77022;SDS011;65952;51.440;-2.054;2022-12-17T05:51:12;3.80;;;1.70;;
77022;SDS011;65952;51.440;-2.054;2022-12-17T05:53:56;5.80;;;2.10;;
77022;SDS011;65952;51.440;-2.054;2022-12-17T05:56:40;3.20;;;1.80;;
77022;SDS011;65952;51.440;-2.054;2022-12-17T05:59:23;4.05;;;1.80;;
77022;SDS011;65952;51.440;-2.054;2022-12-17T06:02:08;3.22;;;1.70;;
77022;SDS011;65952;51.440;-2.054;2022-12-17T06:04:51;4.22;;;1.90;;
77022;SDS011;65952;51.440;-2.054;2022-12-17T06:07:36;3.15;;;1.70;;
77022;SDS011;65952;51.440;-2.054;2022-12-17T06:10:20;3.67;;;1.83;;
77022;SDS011;65952;51.440;-2.054;2022-12-17T06:13:04;4.15;;;2.00;;
77022;SDS011;65952;51.440;-2.054;2022-12-17T06:15:48;3.28;;;1.65;;
77022;SDS011;65952;51.440;-2.054;2022-12-17T06:18:33;3.67;;;1.90;;
77022;SDS011;65952;51.440;-2.054;2022-12-17T06:21:20;3.72;;;1.90;;
77022;SDS011;65952;51.440;-2.054;2022-12-17T06:24:04;4.00;;;1.80;;
77022;SDS011;65952;51.440;-2.054;2022-12-17T06:26:49;3.65;;;1.85;;
77022;SDS011;65952;51.440;-2.054;2022-12-17T06:29:33;3.72;;;1.88;;
77022;SDS011;65952;51.440;-2.054;2022-12-17T06:32:17;4.20;;;2.05;;
77022;SDS011;65952;51.440;-2.054;2022-12-17T06:35:01;3.47;;;1.80;;
77022;SDS011;65952;51.440;-2.054;2022-12-17T06:37:45;3.03;;;1.63;;
77022;SDS011;65952;51.440;-2.054;2022-12-17T06:40:29;3.38;;;1.70;;
77022;SDS011;65952;51.440;-2.054;2022-12-17T06:43:13;4.07;;;1.67;;
77022;SDS011;65952;51.440;-2.054;2022-12-17T06:45:57;4.55;;;1.80;;
77022;SDS011;65952;51.440;-2.054;2022-12-17T06:48:41;4.78;;;1.77;;
77022;SDS011;65952;51.440;-2.054;2022-12-17T06:51:25;4.28;;;1.90;;
77022;SDS011;65952;51.440;-2.054;2022-12-17T06:54:09;3.38;;;1.80;;
77022;SDS011;65952;51.440;-2.054;2022-12-17T06:56:54;4.43;;;1.80;;
77022;SDS011;65952;51.440;-2.054;2022-12-17T06:59:38;5.60;;;1.92;;
77022;SDS011;65952;51.440;-2.054;2022-12-17T07:02:22;3.63;;;1.70;;
77022;SDS011;65952;51.440;-2.054;2022-12-17T07:05:06;4.68;;;2.00;;
77022;SDS011;65952;51.440;-2.054;2022-12-17T07:07:57;5.05;;;1.70;;
77022;SDS011;65952;51.440;-2.054;2022-12-17T07:10:41;3.15;;;1.60;;
77022;SDS011;65952;51.440;-2.054;2022-12-17T07:13:25;4.38;;;1.70;;
77022;SDS011;65952;51.440;-2.054;2022-12-17T07:16:09;4.13;;;2.15;;
77022;SDS011;65952;51.440;-2.054;2022-12-17T07:18:53;3.47;;;1.70;;
77022;SDS011;65952;51.440;-2.054;2022-12-17T07:21:37;3.85;;;1.52;;
77022;SDS011;65952;51.440;-2.054;2022-12-17T07:24:21;3.42;;;1.80;;
77022;SDS011;65952;51.440;-2.054;2022-12-17T07:27:05;4.35;;;1.70;;
77022;SDS011;65952;51.440;-2.054;2022-12-17T07:29:49;3.47;;;1.80;;
77022;SDS011;65952;51.440;-2.054;2022-12-17T07:32:33;3.80;;;1.80;;
77022;SDS011;65952;51.440;-2.054;2022-12-17T07:35:17;3.13;;;1.63;;
77022;SDS011;65952;51.440;-2.054;2022-12-17T07:38:01;3.88;;;1.90;;
77022;SDS011;65952;51.440;-2.054;2022-12-17T07:40:46;3.35;;;1.70;;
77022;SDS011;65952;51.440;-2.054;2022-12-17T07:43:30;3.50;;;1.70;;
77022;SDS011;65952;51.440;-2.054;2022-12-17T07:46:14;3.58;;;1.65;;
77022;SDS011;65952;51.440;-2.054;2022-12-17T07:48:58;3.10;;;1.60;;
77022;SDS011;65952;51.440;-2.054;2022-12-17T07:51:42;4.32;;;1.60;;
77022;SDS011;65952;51.440;-2.054;2022-12-17T07:54:26;4.88;;;1.88;;
77022;SDS011;65952;51.440;-2.054;2022-12-17T07:57:27;4.43;;;1.50;;
77022;SDS011;65952;51.440;-2.054;2022-12-17T08:00:11;4.30;;;2.20;;
77022;SDS011;65952;51.440;-2.054;2022-12-17T08:02:59;3.25;;;1.80;;
77022;SDS011;65952;51.440;-2.054;2022-12-17T08:05:51;3.58;;;1.67;;
77022;SDS011;65952;51.440;-2.054;2022-12-17T08:08:34;4.00;;;1.88;;
77022;SDS011;65952;51.440;-2.054;2022-12-17T08:11:19;3.50;;;1.80;;
77022;SDS011;65952;51.440;-2.054;2022-12-17T08:14:03;5.75;;;2.15;;
77022;SDS011;65952;51.440;-2.054;2022-12-17T08:16:47;3.53;;;1.90;;
77022;SDS011;65952;51.440;-2.054;2022-12-17T08:19:31;3.22;;;1.70;;
77022;SDS011;65952;51.440;-2.054;2022-12-17T08:22:15;6.30;;;1.90;;
77022;SDS011;65952;51.440;-2.054;2022-12-17T08:25:00;3.83;;;1.73;;
77022;SDS011;65952;51.440;-2.054;2022-12-17T08:27:44;4.68;;;2.00;;
77022;SDS011;65952;51.440;-2.054;2022-12-17T08:30:28;3.58;;;1.80;;
77022;SDS011;65952;51.440;-2.054;2022-12-17T08:33:12;6.65;;;1.90;;
77022;SDS011;65952;51.440;-2.054;2022-12-17T08:35:56;3.83;;;1.90;;
77022;SDS011;65952;51.440;-2.054;2022-12-17T08:38:41;5.00;;;2.00;;
77022;SDS011;65952;51.440;-2.054;2022-12-17T08:41:26;5.88;;;1.83;;
77022;SDS011;65952;51.440;-2.054;2022-12-17T08:44:10;3.90;;;1.90;;
77022;SDS011;65952;51.440;-2.054;2022-12-17T08:46:54;3.85;;;1.92;;
77022;SDS011;65952;51.440;-2.054;2022-12-17T08:49:38;3.90;;;1.88;;
77022;SDS011;65952;51.440;-2.054;2022-12-17T08:52:22;4.45;;;1.83;;
77022;SDS011;65952;51.440;-2.054;2022-12-17T08:55:07;3.42;;;1.80;;
77022;SDS011;65952;51.440;-2.054;2022-12-17T08:57:52;4.15;;;1.90;;
77022;SDS011;65952;51.440;-2.054;2022-12-17T09:00:39;5.03;;;1.90;;
77022;SDS011;65952;51.440;-2.054;2022-12-17T10:18:05;10.02;;;4.82;;
77022;SDS011;65952;51.440;-2.054;2022-12-17T10:20:54;7.90;;;4.65;;
77022;SDS011;65952;51.440;-2.054;2022-12-17T10:23:41;8.57;;;4.63;;
77022;SDS011;65952;51.440;-2.054;2022-12-17T10:26:26;8.63;;;5.05;;
77022;SDS011;65952;51.440;-2.054;2022-12-17T10:29:16;9.13;;;5.05;;
77022;SDS011;65952;51.440;-2.054;2022-12-17T10:35:06;10.45;;;5.00;;
77022;SDS011;65952;51.440;-2.054;2022-12-17T10:37:54;8.73;;;4.68;;
77022;SDS011;65952;51.440;-2.054;2022-12-17T10:40:38;10.23;;;5.05;;
77022;SDS011;65952;51.440;-2.054;2022-12-17T10:43:36;8.10;;;4.68;;
77022;SDS011;65952;51.440;-2.054;2022-12-17T10:46:31;9.57;;;5.03;;
77022;SDS011;65952;51.440;-2.054;2022-12-17T10:49:20;10.35;;;4.88;;
77022;SDS011;65952;51.440;-2.054;2022-12-17T10:55:17;8.93;;;5.00;;
77022;SDS011;65952;51.440;-2.054;2022-12-17T10:58:08;8.50;;;5.43;;
77022;SDS011;65952;51.440;-2.054;2022-12-17T11:00:59;9.52;;;5.13;;
77022;SDS011;65952;51.440;-2.054;2022-12-17T11:03:55;10.48;;;5.45;;
77022;SDS011;65952;51.440;-2.054;2022-12-17T11:06:47;7.90;;;4.53;;
77022;SDS011;65952;51.440;-2.054;2022-12-17T11:12:31;7.78;;;4.43;;
77022;SDS011;65952;51.440;-2.054;2022-12-17T11:15:48;10.10;;;4.97;;
77022;SDS011;65952;51.440;-2.054;2022-12-17T11:18:47;13.15;;;4.97;;
77022;SDS011;65952;51.440;-2.054;2022-12-17T11:21:34;14.70;;;6.20;;
77022;SDS011;65952;51.440;-2.054;2022-12-17T11:24:24;10.40;;;4.97;;
77022;SDS011;65952;51.440;-2.054;2022-12-17T11:27:17;10.40;;;5.25;;
77022;SDS011;65952;51.440;-2.054;2022-12-17T11:30:10;11.35;;;5.68;;
77022;SDS011;65952;51.440;-2.054;2022-12-17T11:35:45;10.50;;;5.30;;
77022;SDS011;65952;51.440;-2.054;2022-12-17T11:38:39;13.40;;;5.45;;
77022;SDS011;65952;51.440;-2.054;2022-12-17T11:51:45;11.95;;;5.72;;
77022;SDS011;65952;51.440;-2.054;2022-12-17T11:54:13;14.07;;;5.07;;
77022;SDS011;65952;51.440;-2.054;2022-12-17T11:57:15;8.77;;;5.05;;
77022;SDS011;65952;51.440;-2.054;2022-12-17T12:12:10;9.90;;;4.55;;
77022;SDS011;65952;51.440;-2.054;2022-12-17T12:30:40;10.98;;;4.80;;
77022;SDS011;65952;51.440;-2.054;2022-12-17T12:33:41;11.77;;;4.95;;
77022;SDS011;65952;51.440;-2.054;2022-12-17T12:36:31;10.32;;;5.18;;
77022;SDS011;65952;51.440;-2.054;2022-12-17T12:39:18;9.75;;;4.95;;
77022;SDS011;65952;51.440;-2.054;2022-12-17T12:42:15;11.75;;;5.85;;
77022;SDS011;65952;51.440;-2.054;2022-12-17T12:45:15;9.10;;;5.53;;
77022;SDS011;65952;51.440;-2.054;2022-12-17T12:48:26;11.18;;;5.60;;
77022;SDS011;65952;51.440;-2.054;2022-12-17T12:51:29;11.75;;;5.65;;
77022;SDS011;65952;51.440;-2.054;2022-12-17T13:00:33;9.25;;;4.80;;
77022;SDS011;65952;51.440;-2.054;2022-12-17T13:06:35;11.02;;;4.55;;
77022;SDS011;65952;51.440;-2.054;2022-12-17T13:11:40;8.88;;;5.55;;
77022;SDS011;65952;51.440;-2.054;2022-12-17T13:24:47;13.88;;;7.20;;
77022;SDS011;65952;51.440;-2.054;2022-12-17T13:32:49;12.32;;;5.88;;
77022;SDS011;65952;51.440;-2.054;2022-12-17T13:38:23;10.85;;;5.88;;
77022;SDS011;65952;51.440;-2.054;2022-12-17T13:43:30;11.30;;;6.60;;
77022;SDS011;65952;51.440;-2.054;2022-12-17T13:45:57;12.13;;;5.90;;
77022;SDS011;65952;51.440;-2.054;2022-12-17T13:48:25;12.18;;;6.03;;
77022;SDS011;65952;51.440;-2.054;2022-12-17T13:51:02;10.73;;;5.88;;
77022;SDS011;65952;51.440;-2.054;2022-12-17T13:53:29;16.77;;;5.95;;
77022;SDS011;65952;51.440;-2.054;2022-12-17T13:55:59;11.07;;;5.45;;
77022;SDS011;65952;51.440;-2.054;2022-12-17T14:01:05;12.75;;;6.70;;
77022;SDS011;65952;51.440;-2.054;2022-12-17T14:03:32;13.75;;;6.35;;
77022;SDS011;65952;51.440;-2.054;2022-12-17T14:05:57;11.60;;;5.80;;
77022;SDS011;65952;51.440;-2.054;2022-12-17T14:08:23;12.27;;;6.30;;
77022;SDS011;65952;51.440;-2.054;2022-12-17T14:10:53;13.82;;;6.50;;
77022;SDS011;65952;51.440;-2.054;2022-12-17T14:13:40;11.65;;;5.10;;
77022;SDS011;65952;51.440;-2.054;2022-12-17T14:16:06;10.52;;;5.35;;
77022;SDS011;65952;51.440;-2.054;2022-12-17T14:18:32;9.60;;;4.82;;
77022;SDS011;65952;51.440;-2.054;2022-12-17T14:20:58;12.93;;;4.85;;
77022;SDS011;65952;51.440;-2.054;2022-12-17T14:23:30;9.95;;;4.47;;
77022;SDS011;65952;51.440;-2.054;2022-12-17T14:25:57;10.50;;;4.45;;
77022;SDS011;65952;51.440;-2.054;2022-12-17T14:28:28;7.25;;;4.15;;
77022;SDS011;65952;51.440;-2.054;2022-12-17T14:31:03;7.28;;;4.25;;
77022;SDS011;65952;51.440;-2.054;2022-12-17T14:33:40;9.38;;;4.03;;
77022;SDS011;65952;51.440;-2.054;2022-12-17T14:36:28;10.75;;;4.25;;
77022;SDS011;65952;51.440;-2.054;2022-12-17T14:38:57;7.68;;;4.00;;
77022;SDS011;65952;51.440;-2.054;2022-12-17T14:41:24;8.43;;;4.05;;
77022;SDS011;65952;51.440;-2.054;2022-12-17T14:44:18;8.95;;;4.07;;
77022;SDS011;65952;51.440;-2.054;2022-12-17T14:46:45;7.78;;;3.75;;
77022;SDS011;65952;51.440;-2.054;2022-12-17T14:49:11;10.00;;;3.95;;
77022;SDS011;65952;51.440;-2.054;2022-12-17T14:51:44;6.43;;;3.40;;
77022;SDS011;65952;51.440;-2.054;2022-12-17T14:56:50;9.43;;;4.05;;
77022;SDS011;65952;51.440;-2.054;2022-12-17T14:59:23;9.60;;;4.05;;
77022;SDS011;65952;51.440;-2.054;2022-12-17T15:01:50;7.45;;;3.30;;
77022;SDS011;65952;51.440;-2.054;2022-12-17T15:04:17;8.32;;;3.90;;
77022;SDS011;65952;51.440;-2.054;2022-12-17T15:06:42;7.50;;;4.07;;
77022;SDS011;65952;51.440;-2.054;2022-12-17T15:09:09;7.22;;;3.60;;
77022;SDS011;65952;51.440;-2.054;2022-12-17T15:11:36;6.93;;;3.45;;
77022;SDS011;65952;51.440;-2.054;2022-12-17T15:14:02;9.88;;;3.40;;
77022;SDS011;65952;51.440;-2.054;2022-12-17T15:16:27;9.65;;;3.40;;
77022;SDS011;65952;51.440;-2.054;2022-12-17T15:18:53;7.22;;;3.47;;
77022;SDS011;65952;51.440;-2.054;2022-12-17T15:21:18;7.18;;;2.97;;
77022;SDS011;65952;51.440;-2.054;2022-12-17T15:23:44;6.63;;;3.40;;
77022;SDS011;65952;51.440;-2.054;2022-12-17T15:26:11;8.63;;;3.60;;
77022;SDS011;65952;51.440;-2.054;2022-12-17T15:28:39;5.78;;;3.00;;
77022;SDS011;65952;51.440;-2.054;2022-12-17T15:31:05;7.63;;;3.28;;
77022;SDS011;65952;51.440;-2.054;2022-12-17T15:33:30;12.32;;;3.60;;
77022;SDS011;65952;51.440;-2.054;2022-12-17T15:35:56;8.68;;;4.20;;
77022;SDS011;65952;51.440;-2.054;2022-12-17T15:38:22;7.95;;;3.50;;
77022;SDS011;65952;51.440;-2.054;2022-12-17T15:40:47;10.00;;;3.70;;
77022;SDS011;65952;51.440;-2.054;2022-12-17T15:43:15;11.13;;;4.28;;
77022;SDS011;65952;51.440;-2.054;2022-12-17T15:45:45;8.75;;;4.32;;
77022;SDS011;65952;51.440;-2.054;2022-12-17T15:48:16;7.75;;;3.80;;
77022;SDS011;65952;51.440;-2.054;2022-12-17T15:50:43;8.80;;;3.92;;
77022;SDS011;65952;51.440;-2.054;2022-12-17T15:53:09;7.55;;;4.03;;
77022;SDS011;65952;51.440;-2.054;2022-12-17T15:55:35;6.68;;;3.67;;
77022;SDS011;65952;51.440;-2.054;2022-12-17T15:58:01;12.07;;;4.57;;
77022;SDS011;65952;51.440;-2.054;2022-12-17T16:00:26;13.15;;;5.25;;
77022;SDS011;65952;51.440;-2.054;2022-12-17T16:02:52;11.00;;;4.68;;
77022;SDS011;65952;51.440;-2.054;2022-12-17T16:05:18;10.10;;;4.55;;
77022;SDS011;65952;51.440;-2.054;2022-12-17T16:07:44;7.85;;;4.35;;
77022;SDS011;65952;51.440;-2.054;2022-12-17T16:10:11;10.43;;;4.68;;
77022;SDS011;65952;51.440;-2.054;2022-12-17T16:12:37;8.73;;;4.80;;
77022;SDS011;65952;51.440;-2.054;2022-12-17T16:15:03;11.93;;;4.65;;
77022;SDS011;65952;51.440;-2.054;2022-12-17T16:17:30;8.85;;;4.05;;
77022;SDS011;65952;51.440;-2.054;2022-12-17T16:19:55;11.07;;;4.10;;
77022;SDS011;65952;51.440;-2.054;2022-12-17T16:22:21;9.85;;;5.43;;
77022;SDS011;65952;51.440;-2.054;2022-12-17T16:24:46;9.20;;;5.25;;
77022;SDS011;65952;51.440;-2.054;2022-12-17T16:27:13;12.48;;;5.15;;
77022;SDS011;65952;51.440;-2.054;2022-12-17T16:29:39;9.15;;;4.50;;
77022;SDS011;65952;51.440;-2.054;2022-12-17T16:32:05;7.50;;;5.00;;
77022;SDS011;65952;51.440;-2.054;2022-12-17T16:34:30;8.45;;;4.43;;
77022;SDS011;65952;51.440;-2.054;2022-12-17T16:36:56;10.15;;;4.53;;
77022;SDS011;65952;51.440;-2.054;2022-12-17T16:39:21;8.38;;;4.65;;
77022;SDS011;65952;51.440;-2.054;2022-12-17T16:41:47;8.90;;;4.63;;
77022;SDS011;65952;51.440;-2.054;2022-12-17T16:44:12;10.52;;;4.53;;
77022;SDS011;65952;51.440;-2.054;2022-12-17T16:46:39;9.38;;;5.07;;
77022;SDS011;65952;51.440;-2.054;2022-12-17T16:49:09;10.45;;;4.40;;
77022;SDS011;65952;51.440;-2.054;2022-12-17T16:51:40;8.20;;;4.10;;
77022;SDS011;65952;51.440;-2.054;2022-12-17T16:54:06;8.85;;;3.83;;
77022;SDS011;65952;51.440;-2.054;2022-12-17T16:56:33;7.97;;;3.90;;
77022;SDS011;65952;51.440;-2.054;2022-12-17T16:59:00;7.82;;;3.92;;
77022;SDS011;65952;51.440;-2.054;2022-12-17T17:01:29;8.18;;;3.92;;
77022;SDS011;65952;51.440;-2.054;2022-12-17T17:03:55;12.65;;;4.05;;
77022;SDS011;65952;51.440;-2.054;2022-12-17T17:06:21;7.93;;;3.90;;
77022;SDS011;65952;51.440;-2.054;2022-12-17T17:08:48;11.05;;;3.88;;
77022;SDS011;65952;51.440;-2.054;2022-12-17T17:13:43;10.60;;;4.70;;
77022;SDS011;65952;51.440;-2.054;2022-12-17T17:16:09;7.95;;;5.00;;
77022;SDS011;65952;51.440;-2.054;2022-12-17T17:18:35;10.65;;;4.97;;
77022;SDS011;65952;51.440;-2.054;2022-12-17T17:21:13;9.43;;;5.25;;
77022;SDS011;65952;51.440;-2.054;2022-12-17T17:24:04;12.27;;;6.43;;
77022;SDS011;65952;51.440;-2.054;2022-12-17T17:26:35;17.40;;;7.38;;
77022;SDS011;65952;51.440;-2.054;2022-12-17T17:29:01;13.05;;;6.85;;
77022;SDS011;65952;51.440;-2.054;2022-12-17T17:31:27;13.35;;;6.13;;
77022;SDS011;65952;51.440;-2.054;2022-12-17T17:33:52;13.15;;;6.25;;
77022;SDS011;65952;51.440;-2.054;2022-12-17T17:36:23;13.48;;;7.75;;
77022;SDS011;65952;51.440;-2.054;2022-12-17T17:38:49;12.45;;;7.18;;
77022;SDS011;65952;51.440;-2.054;2022-12-17T17:41:17;15.48;;;7.78;;
77022;SDS011;65952;51.440;-2.054;2022-12-17T17:43:44;14.45;;;7.18;;
77022;SDS011;65952;51.440;-2.054;2022-12-17T17:46:11;12.82;;;6.95;;
77022;SDS011;65952;51.440;-2.054;2022-12-17T17:48:41;9.70;;;5.82;;
77022;SDS011;65952;51.440;-2.054;2022-12-17T17:51:11;11.88;;;5.90;;
77022;SDS011;65952;51.440;-2.054;2022-12-17T17:53:40;8.07;;;5.00;;
77022;SDS011;65952;51.440;-2.054;2022-12-17T17:56:07;12.23;;;5.65;;
77022;SDS011;65952;51.440;-2.054;2022-12-17T18:01:11;10.70;;;5.88;;
77022;SDS011;65952;51.440;-2.054;2022-12-17T18:03:38;10.63;;;6.25;;
77022;SDS011;65952;51.440;-2.054;2022-12-17T18:06:04;10.23;;;5.55;;
77022;SDS011;65952;51.440;-2.054;2022-12-17T18:08:31;13.38;;;5.68;;
77022;SDS011;65952;51.440;-2.054;2022-12-17T18:10:58;11.43;;;6.05;;
77022;SDS011;65952;51.440;-2.054;2022-12-17T18:13:25;20.83;;;7.82;;
77022;SDS011;65952;51.440;-2.054;2022-12-17T18:16:10;13.00;;;7.43;;
77022;SDS011;65952;51.440;-2.054;2022-12-17T18:18:36;14.40;;;8.02;;
77022;SDS011;65952;51.440;-2.054;2022-12-17T18:21:05;12.07;;;6.20;;
77022;SDS011;65952;51.440;-2.054;2022-12-17T18:23:35;10.63;;;6.10;;
77022;SDS011;65952;51.440;-2.054;2022-12-17T18:26:08;12.32;;;5.20;;
77022;SDS011;65952;51.440;-2.054;2022-12-17T18:28:41;10.00;;;5.47;;
77022;SDS011;65952;51.440;-2.054;2022-12-17T18:31:08;7.10;;;4.07;;
77022;SDS011;65952;51.440;-2.054;2022-12-17T18:33:37;7.57;;;4.38;;
77022;SDS011;65952;51.440;-2.054;2022-12-17T18:36:12;8.18;;;4.40;;
77022;SDS011;65952;51.440;-2.054;2022-12-17T18:38:56;7.80;;;3.72;;
77022;SDS011;65952;51.440;-2.054;2022-12-17T18:41:30;8.25;;;4.05;;
77022;SDS011;65952;51.440;-2.054;2022-12-17T18:44:15;9.50;;;3.97;;